createdAt,value
2018-12-12T00:01:44.085Z,26.95
2018-12-12T00:04:12.566Z,24.77
2018-12-12T00:06:40.958Z,26.07
2018-12-12T00:09:09.312Z,28.73
2018-12-12T00:11:37.906Z,19.45
2018-12-12T00:14:06.275Z,20.23
2018-12-12T00:16:34.632Z,29.50
2018-12-12T00:19:03.058Z,22.70
2018-12-12T00:21:31.479Z,27.10
2018-12-12T00:23:59.849Z,19.82
2018-12-12T00:26:28.208Z,24.57
2018-12-12T00:28:56.894Z,33.20
2018-12-12T00:31:25.258Z,21.07
2018-12-12T00:33:53.639Z,20.95
2018-12-12T00:36:22.029Z,37.80
2018-12-12T00:38:50.687Z,18.87
2018-12-12T00:41:19.066Z,29.87
2018-12-12T00:43:47.485Z,33.23
2018-12-12T00:46:15.963Z,29.82
2018-12-12T00:48:44.449Z,24.82
2018-12-12T00:51:12.823Z,29.32
2018-12-12T00:53:41.182Z,21.10
2018-12-12T00:56:09.665Z,19.52
2018-12-12T00:58:38.068Z,23.62
2018-12-12T01:01:06.565Z,25.10
2018-12-12T01:03:35.031Z,24.10
2018-12-12T01:06:03.523Z,21.97
2018-12-12T01:08:31.862Z,25.27
2018-12-12T01:11:05.611Z,23.87
2018-12-12T01:13:34.008Z,23.90
2018-12-12T01:16:02.571Z,22.00
2018-12-12T01:18:30.986Z,36.03
2018-12-12T01:20:59.347Z,35.23
2018-12-12T01:23:27.964Z,28.60
2018-12-12T01:25:56.339Z,27.52
2018-12-12T01:28:24.687Z,34.20
2018-12-12T01:30:53.047Z,20.17
2018-12-12T01:33:21.421Z,23.90
2018-12-12T01:35:49.783Z,25.50
2018-12-12T01:38:18.152Z,26.60
2018-12-12T01:40:46.702Z,29.07
2018-12-12T01:43:15.051Z,17.25
2018-12-12T01:45:43.424Z,22.25
2018-12-12T01:48:11.797Z,22.93
2018-12-12T01:50:40.272Z,25.23
2018-12-12T01:53:08.617Z,22.85
2018-12-12T01:55:37.031Z,27.22
2018-12-12T01:58:05.548Z,31.02
2018-12-12T02:00:33.940Z,25.02
2018-12-12T02:03:02.337Z,20.90
2018-12-12T02:05:30.733Z,34.30
2018-12-12T02:07:59.612Z,31.57
2018-12-12T02:10:28.048Z,24.45
2018-12-12T02:13:08.267Z,24.60
2018-12-12T02:15:36.640Z,18.50
2018-12-12T02:18:05.106Z,22.48
2018-12-12T02:20:33.464Z,24.05
2018-12-12T02:23:01.841Z,21.52
2018-12-12T02:25:30.190Z,22.10
2018-12-12T02:27:58.555Z,23.80
2018-12-12T02:30:27.406Z,24.60
2018-12-12T02:32:56.058Z,28.15
2018-12-12T02:35:24.411Z,30.05
2018-12-12T02:37:52.797Z,24.70
2018-12-12T02:40:21.310Z,22.62
2018-12-12T02:42:49.679Z,26.68
2018-12-12T02:45:18.092Z,28.55
2018-12-12T02:47:46.760Z,20.75
2018-12-12T02:50:15.554Z,23.83
2018-12-12T02:52:43.955Z,34.25
2018-12-12T02:55:12.480Z,19.12
2018-12-12T02:57:40.831Z,22.13
2018-12-12T03:00:09.914Z,19.12
2018-12-12T03:02:38.596Z,20.48
2018-12-12T03:05:07.085Z,17.95
2018-12-12T03:07:35.581Z,23.90
2018-12-12T03:10:04.300Z,31.05
2018-12-12T03:12:32.628Z,32.30
2018-12-12T03:15:01.109Z,30.00
2018-12-12T03:17:29.508Z,57.45
2018-12-12T03:19:57.850Z,46.58
2018-12-12T03:22:26.233Z,52.45
2018-12-12T03:24:54.567Z,52.17
2018-12-12T03:27:22.917Z,41.68
2018-12-12T03:29:51.315Z,48.10
2018-12-12T03:32:19.675Z,38.88
2018-12-12T03:34:48.024Z,39.65
2018-12-12T03:37:16.400Z,44.98
2018-12-12T03:39:44.758Z,31.55
2018-12-12T03:42:13.550Z,34.83
2018-12-12T03:44:41.939Z,37.93
2018-12-12T03:47:10.286Z,28.52
2018-12-12T03:49:38.624Z,28.70
2018-12-12T03:52:06.996Z,31.35
2018-12-12T03:54:35.361Z,34.50
2018-12-12T03:57:03.742Z,38.48
2018-12-12T03:59:32.131Z,31.50
2018-12-12T04:02:00.494Z,33.05
2018-12-12T04:04:28.850Z,34.53
2018-12-12T04:06:57.232Z,27.10
2018-12-12T04:09:25.735Z,57.95
2018-12-12T04:11:54.388Z,38.98
2018-12-12T04:14:22.769Z,40.43
2018-12-12T04:16:51.119Z,44.55
2018-12-12T04:19:19.526Z,30.20
2018-12-12T04:21:47.967Z,31.10
2018-12-12T04:24:16.615Z,34.50
2018-12-12T04:26:44.967Z,52.70
2018-12-12T04:29:13.343Z,26.23
2018-12-12T04:31:42.112Z,34.23
2018-12-12T04:34:10.464Z,25.52
2018-12-12T04:36:38.860Z,27.70
2018-12-12T04:39:07.895Z,28.17
2018-12-12T04:41:36.254Z,32.03
2018-12-12T04:44:04.931Z,34.58
2018-12-12T04:46:33.279Z,25.10
2018-12-12T04:49:01.941Z,28.00
2018-12-12T04:51:30.783Z,24.55
2018-12-12T04:53:59.148Z,25.12
2018-12-12T04:56:27.505Z,32.93
2018-12-12T04:58:56.420Z,26.87
2018-12-12T05:01:24.834Z,28.40
2018-12-12T05:03:53.191Z,25.10
2018-12-12T05:06:21.794Z,23.32
2018-12-12T05:08:50.242Z,26.23
2018-12-12T05:11:18.619Z,27.52
2018-12-12T05:13:47.013Z,16.75
2018-12-12T05:16:15.662Z,25.25
2018-12-12T05:18:44.038Z,24.37
2018-12-12T05:21:12.413Z,24.40
2018-12-12T05:23:40.819Z,19.70
2018-12-12T05:26:09.484Z,20.35
2018-12-12T05:28:37.881Z,37.05
2018-12-12T05:31:06.250Z,38.98
2018-12-12T05:33:34.640Z,29.12
2018-12-12T05:36:03.694Z,52.40
2018-12-12T05:38:32.066Z,99.77
2018-12-12T05:41:00.427Z,68.92
2018-12-12T05:43:28.804Z,83.60
2018-12-12T05:45:57.189Z,115.65
2018-12-12T05:48:25.830Z,98.67
2018-12-12T05:50:54.209Z,61.58
2018-12-12T05:53:22.798Z,81.47
2018-12-12T05:55:51.579Z,98.45
2018-12-12T05:58:19.959Z,96.45
2018-12-12T06:00:48.447Z,101.58
2018-12-12T06:03:17.027Z,151.90
2018-12-12T06:05:45.414Z,98.90
2018-12-12T06:08:13.773Z,63.52
2018-12-12T06:10:42.443Z,54.50
2018-12-12T06:13:10.867Z,144.75
2018-12-12T06:15:39.239Z,69.17
2018-12-12T06:18:07.646Z,53.20
2018-12-12T06:20:36.045Z,70.90
2018-12-12T06:23:04.413Z,55.03
2018-12-12T06:25:33.184Z,68.02
2018-12-12T06:28:01.723Z,74.80
2018-12-12T06:30:30.355Z,55.17
2018-12-12T06:32:58.716Z,71.97
2018-12-12T06:35:27.223Z,60.98
2018-12-12T06:37:55.590Z,58.65
2018-12-12T06:40:23.948Z,87.40
2018-12-12T06:42:52.351Z,105.87
2018-12-12T06:45:20.721Z,71.53
2018-12-12T06:47:49.135Z,35.43
2018-12-12T06:50:17.528Z,77.00
2018-12-12T06:52:45.881Z,37.08
2018-12-12T06:55:14.242Z,68.05
2018-12-12T06:57:42.684Z,91.92
2018-12-12T07:00:11.219Z,105.87
2018-12-12T07:02:39.589Z,47.88
2018-12-12T07:05:08.052Z,164.97
2018-12-12T07:07:36.825Z,67.55
2018-12-12T07:10:05.652Z,105.47
2018-12-12T07:12:34.103Z,54.38
2018-12-12T07:15:02.557Z,106.85
2018-12-12T07:17:30.918Z,61.05
2018-12-12T07:19:59.309Z,97.05
2018-12-12T07:22:27.671Z,67.42
2018-12-12T07:24:56.029Z,49.03
2018-12-12T07:27:24.425Z,65.75
2018-12-12T07:29:52.809Z,77.08
2018-12-12T07:32:26.064Z,54.88
2018-12-12T07:34:51.573Z,103.22
2018-12-12T07:37:19.914Z,59.67
2018-12-12T07:39:48.268Z,45.58
2018-12-12T07:42:16.645Z,179.03
2018-12-12T07:44:45.160Z,42.38
2018-12-12T07:47:14.444Z,86.95
2018-12-12T07:49:43.222Z,66.25
2018-12-12T07:52:12.277Z,81.57
2018-12-12T07:54:40.962Z,57.08
2018-12-12T07:57:09.646Z,80.38
2018-12-12T07:59:38.244Z,63.92
2018-12-12T08:02:06.631Z,74.55
2018-12-12T08:04:35.063Z,58.85
2018-12-12T08:07:03.434Z,62.45
2018-12-12T08:09:31.844Z,103.67
2018-12-12T08:12:00.227Z,37.13
2018-12-12T08:14:28.597Z,61.08
2018-12-12T08:16:56.960Z,106.47
2018-12-12T08:19:25.350Z,53.65
2018-12-12T08:21:53.722Z,101.53
2018-12-12T08:24:22.366Z,105.75
2018-12-12T08:26:50.787Z,139.18
2018-12-12T08:29:19.139Z,124.70
2018-12-12T08:31:47.522Z,251.20
2018-12-12T08:34:15.907Z,177.30
2018-12-12T08:36:44.262Z,227.57
2018-12-12T08:39:12.630Z,101.65
2018-12-12T08:41:41.067Z,201.70
2018-12-12T08:44:09.786Z,224.18
2018-12-12T08:46:38.171Z,254.65
2018-12-12T08:49:06.573Z,155.15
2018-12-12T08:51:34.950Z,319.95
2018-12-12T08:54:03.354Z,303.98
2018-12-12T08:56:31.750Z,299.30
2018-12-12T08:59:00.091Z,180.50
2018-12-12T09:01:29.023Z,84.92
2018-12-12T09:03:57.489Z,205.03
2018-12-12T09:06:26.116Z,225.97
2018-12-12T09:08:54.492Z,130.65
2018-12-12T09:11:22.870Z,54.98
2018-12-12T09:13:51.217Z,213.87
2018-12-12T09:16:19.590Z,109.12
2018-12-12T09:18:47.987Z,194.25
2018-12-12T09:21:16.352Z,204.35
2018-12-12T09:23:44.741Z,183.65
2018-12-12T09:26:13.169Z,115.22
2018-12-12T09:28:41.520Z,99.77
2018-12-12T09:31:09.889Z,140.75
2018-12-12T09:33:38.286Z,132.75
2018-12-12T09:36:06.642Z,102.95
2018-12-12T09:38:35.312Z,123.95
2018-12-12T09:41:03.706Z,119.93
2018-12-12T09:43:32.877Z,155.93
2018-12-12T09:46:01.683Z,68.35
2018-12-12T09:48:30.117Z,146.15
2018-12-12T09:50:58.521Z,126.25
2018-12-12T09:53:27.397Z,132.37
2018-12-12T09:55:55.806Z,59.63
2018-12-12T09:58:24.207Z,125.10
2018-12-12T10:00:52.586Z,122.95
2018-12-12T10:03:21.284Z,124.35
2018-12-12T10:05:49.663Z,155.90
2018-12-12T10:08:18.012Z,76.37
2018-12-12T10:10:46.764Z,97.35
2018-12-12T10:13:15.126Z,98.82
2018-12-12T10:15:43.496Z,104.30
2018-12-12T10:18:11.888Z,58.68
2018-12-12T10:20:40.365Z,94.28
2018-12-12T10:23:08.931Z,41.28
2018-12-12T10:25:37.636Z,112.80
2018-12-12T10:28:06.561Z,95.55
2018-12-12T10:30:34.986Z,107.25
2018-12-12T10:33:03.409Z,62.20
2018-12-12T10:35:31.846Z,84.30
2018-12-12T10:38:00.224Z,51.02
2018-12-12T10:40:29.723Z,75.05
2018-12-12T10:42:58.102Z,132.60
2018-12-12T10:45:26.486Z,89.13
2018-12-12T10:47:54.888Z,102.20
2018-12-12T10:50:23.271Z,52.60
2018-12-12T10:52:51.643Z,75.78
2018-12-12T10:55:20.069Z,75.10
2018-12-12T10:57:48.683Z,88.47
2018-12-12T11:00:17.188Z,79.30
2018-12-12T11:02:52.766Z,89.32
2018-12-12T11:05:21.898Z,54.85
2018-12-12T11:07:50.287Z,62.15
2018-12-12T11:10:18.892Z,50.50
2018-12-12T11:12:47.250Z,54.85
2018-12-12T11:15:15.965Z,58.70
2018-12-12T11:17:44.457Z,58.45
2018-12-12T11:20:13.309Z,55.30
2018-12-12T11:22:41.654Z,66.97
2018-12-12T11:25:10.063Z,54.33
2018-12-12T11:27:38.424Z,60.17
2018-12-12T11:30:07.262Z,63.45
2018-12-12T11:32:35.647Z,55.65
2018-12-12T11:35:04.238Z,53.87
2018-12-12T11:37:32.599Z,53.05
2018-12-12T11:40:01.047Z,60.00
2018-12-12T11:42:29.421Z,70.03
2018-12-12T11:44:57.793Z,51.53
2018-12-12T11:47:26.298Z,58.25
2018-12-12T11:49:54.662Z,56.90
2018-12-12T11:52:23.211Z,61.73
2018-12-12T11:54:51.706Z,49.63
2018-12-12T11:57:20.925Z,54.77
2018-12-12T11:59:49.484Z,62.78
2018-12-12T12:02:17.887Z,65.47
2018-12-12T12:04:46.254Z,70.60
2018-12-12T12:07:14.767Z,62.48
2018-12-12T12:09:43.306Z,59.40
2018-12-12T12:12:11.675Z,59.93
2018-12-12T12:14:40.034Z,64.92
2018-12-12T12:17:08.433Z,54.75
2018-12-12T12:19:36.808Z,57.62
2018-12-12T12:22:05.174Z,58.60
2018-12-12T12:24:33.692Z,61.48
2018-12-12T12:27:02.060Z,51.90
2018-12-12T12:29:30.753Z,51.15
2018-12-12T12:31:59.158Z,65.55
2018-12-12T12:34:27.657Z,74.97
2018-12-12T12:36:56.551Z,59.08
2018-12-12T12:39:25.104Z,67.42
2018-12-12T12:41:53.471Z,58.85
2018-12-12T12:44:22.209Z,54.63
2018-12-12T12:46:50.601Z,68.65
2018-12-12T12:49:18.994Z,65.47
2018-12-12T12:51:47.359Z,71.60
2018-12-12T12:54:15.799Z,63.17
2018-12-12T12:56:44.210Z,60.55
2018-12-12T12:59:12.879Z,63.48
2018-12-12T13:01:41.444Z,70.52
2018-12-12T13:04:10.052Z,85.67
2018-12-12T13:06:38.582Z,66.28
2018-12-12T13:09:08.063Z,55.55
2018-12-12T13:11:36.432Z,55.85
2018-12-12T13:14:04.839Z,89.95
2018-12-12T13:16:33.370Z,96.78
2018-12-12T13:19:01.741Z,57.85
2018-12-12T13:21:30.243Z,76.33
2018-12-12T13:23:58.788Z,65.80
2018-12-12T13:26:27.152Z,64.80
2018-12-12T13:28:55.872Z,89.03
2018-12-12T13:31:24.277Z,80.40
2018-12-12T13:33:52.937Z,76.33
2018-12-12T13:36:21.955Z,83.82
2018-12-12T13:38:50.617Z,80.70
2018-12-12T13:41:19.553Z,76.65
2018-12-12T13:43:47.943Z,88.62
2018-12-12T13:46:16.330Z,89.15
2018-12-12T13:48:44.733Z,105.50
2018-12-12T13:51:13.406Z,83.55
2018-12-12T13:53:41.842Z,129.15
2018-12-12T13:56:10.193Z,76.42
2018-12-12T13:58:38.547Z,79.62
2018-12-12T14:01:06.935Z,82.33
2018-12-12T14:03:35.626Z,87.47
2018-12-12T14:06:04.312Z,82.35
2018-12-12T14:08:32.729Z,84.32
2018-12-12T14:11:01.092Z,83.30
2018-12-12T14:13:29.737Z,75.40
2018-12-12T14:15:58.181Z,76.97
2018-12-12T14:18:26.552Z,84.35
2018-12-12T14:20:54.924Z,79.37
2018-12-12T14:23:23.607Z,88.17
2018-12-12T14:25:52.274Z,87.95
2018-12-12T14:28:20.619Z,83.65
2018-12-12T14:30:49.038Z,79.12
2018-12-12T14:33:17.730Z,87.37
2018-12-12T14:35:46.091Z,82.22
2018-12-12T14:38:14.476Z,74.05
2018-12-12T14:40:42.867Z,77.90
2018-12-12T14:43:11.827Z,110.25
2018-12-12T14:45:40.554Z,82.97
2018-12-12T14:48:08.926Z,80.50
2018-12-12T14:50:37.281Z,76.37
2018-12-12T14:53:05.793Z,84.77
2018-12-12T14:55:34.346Z,72.00
2018-12-12T14:58:03.014Z,72.53
2018-12-12T15:00:31.382Z,71.97
2018-12-12T15:02:59.836Z,66.15
2018-12-12T15:05:28.275Z,71.72
2018-12-12T15:07:56.740Z,70.60
2018-12-12T15:10:25.122Z,69.45
2018-12-12T15:12:53.910Z,57.03
2018-12-12T15:15:22.403Z,60.63
2018-12-12T15:17:50.761Z,57.67
2018-12-12T15:20:19.137Z,51.65
2018-12-12T15:22:47.539Z,59.40
2018-12-12T15:25:15.916Z,45.10
2018-12-12T15:27:44.508Z,41.42
2018-12-12T15:30:12.908Z,46.25
2018-12-12T15:32:41.875Z,55.92
2018-12-12T15:35:10.254Z,50.03
2018-12-12T15:37:38.671Z,49.08
2018-12-12T15:40:07.193Z,44.88
2018-12-12T15:42:35.583Z,37.78
2018-12-12T15:45:04.486Z,49.77
2018-12-12T15:47:33.074Z,38.98
2018-12-12T15:50:01.446Z,44.83
2018-12-12T15:52:30.007Z,51.37
2018-12-12T15:54:58.552Z,48.48
2018-12-12T15:57:26.913Z,51.35
2018-12-12T15:59:55.345Z,46.85
2018-12-12T16:02:23.991Z,45.23
2018-12-12T16:04:52.384Z,40.80
2018-12-12T16:07:20.811Z,38.55
2018-12-12T16:09:49.412Z,40.17
2018-12-12T16:12:17.771Z,48.90
2018-12-12T16:14:46.174Z,48.05
2018-12-12T16:17:14.573Z,39.42
2018-12-12T16:19:42.936Z,35.45
2018-12-12T16:22:11.390Z,30.50
2018-12-12T16:24:40.073Z,32.45
2018-12-12T16:27:08.471Z,29.72
2018-12-12T16:29:37.073Z,41.15
2018-12-12T16:32:05.435Z,39.88
2018-12-12T16:34:33.808Z,30.20
2018-12-12T16:37:02.202Z,38.98
2018-12-12T16:39:30.920Z,36.28
2018-12-12T16:41:59.335Z,36.98
2018-12-12T16:44:27.841Z,44.15
2018-12-12T16:46:56.284Z,41.95
2018-12-12T16:49:25.062Z,39.48
2018-12-12T16:51:53.487Z,33.30
2018-12-12T16:54:22.129Z,35.40
2018-12-12T16:56:50.493Z,35.35
2018-12-12T16:59:18.916Z,37.85
2018-12-12T17:01:47.303Z,30.57
2018-12-12T17:04:15.964Z,34.13
2018-12-12T17:06:44.378Z,41.58
2018-12-12T17:09:12.776Z,36.90
2018-12-12T17:11:41.184Z,37.33
2018-12-12T17:14:09.614Z,43.05
2018-12-12T17:16:38.160Z,39.63
2018-12-12T17:19:06.808Z,53.13
2018-12-12T17:21:35.243Z,40.98
2018-12-12T17:24:03.617Z,44.63
2018-12-12T17:26:31.978Z,44.67
2018-12-12T17:29:00.399Z,78.37
2018-12-12T17:31:28.927Z,61.42
2018-12-12T17:33:57.635Z,57.38
2018-12-12T17:36:26.056Z,51.65
2018-12-12T17:38:54.443Z,55.15
2018-12-12T17:41:22.835Z,60.48
2018-12-12T17:43:51.495Z,55.25
2018-12-12T17:46:20.223Z,44.05
2018-12-12T17:48:48.601Z,50.58
2018-12-12T17:51:17.046Z,56.48
2018-12-12T17:53:45.420Z,53.30
2018-12-12T17:56:13.819Z,52.35
2018-12-12T17:58:42.464Z,55.78
2018-12-12T18:01:10.848Z,75.67
2018-12-12T18:03:39.274Z,56.68
2018-12-12T18:06:07.967Z,55.52
2018-12-12T18:08:36.327Z,49.23
2018-12-12T18:11:04.710Z,53.68
2018-12-12T18:13:33.093Z,53.28
2018-12-12T18:16:01.458Z,53.35
2018-12-12T18:18:29.838Z,56.88
2018-12-12T18:20:58.256Z,55.03
2018-12-12T18:23:27.287Z,57.73
2018-12-12T18:25:55.661Z,59.20
2018-12-12T18:28:24.250Z,48.33
2018-12-12T18:30:52.932Z,65.30
2018-12-12T18:33:21.314Z,42.60
2018-12-12T18:35:49.721Z,42.45
2018-12-12T18:38:18.346Z,40.88
2018-12-12T18:40:46.813Z,68.85
2018-12-12T18:43:15.299Z,57.88
2018-12-12T18:45:43.736Z,48.15
2018-12-12T18:48:12.191Z,50.15
2018-12-12T18:50:40.583Z,49.05
2018-12-12T18:53:09.255Z,51.75
2018-12-12T18:55:37.730Z,47.50
2018-12-12T18:58:06.255Z,43.38
2018-12-12T19:00:34.611Z,39.00
2018-12-12T19:03:02.988Z,49.75
2018-12-12T19:05:31.524Z,41.20
2018-12-12T19:07:59.904Z,52.38
2018-12-12T19:10:28.270Z,41.83
2018-12-12T19:12:56.877Z,48.83
2018-12-12T19:15:25.263Z,41.20
2018-12-12T19:17:54.109Z,49.03
2018-12-12T19:20:22.514Z,54.38
2018-12-12T19:22:51.113Z,56.13
2018-12-12T19:25:19.637Z,60.15
2018-12-12T19:27:48.053Z,42.75
2018-12-12T19:30:16.851Z,47.13
2018-12-12T19:32:45.779Z,49.53
2018-12-12T19:35:14.501Z,48.00
2018-12-12T19:37:43.487Z,52.75
2018-12-12T19:40:11.851Z,53.35
2018-12-12T19:42:40.474Z,48.63
2018-12-12T19:45:09.261Z,48.15
2018-12-12T19:47:37.642Z,52.33
2018-12-12T19:50:07.022Z,44.33
2018-12-12T19:52:35.523Z,52.35
2018-12-12T19:55:04.252Z,43.68
2018-12-12T19:57:32.683Z,54.98
2018-12-12T20:00:01.603Z,50.98
2018-12-12T20:02:29.970Z,45.73
2018-12-12T20:04:58.421Z,52.85
2018-12-12T20:07:26.804Z,47.50
2018-12-12T20:09:55.182Z,63.90
2018-12-12T20:12:23.883Z,49.58
2018-12-12T20:14:52.255Z,43.73
2018-12-12T20:17:20.980Z,46.95
2018-12-12T20:19:49.891Z,48.58
2018-12-12T20:22:18.316Z,51.05
2018-12-12T20:24:47.054Z,48.40
2018-12-12T20:27:15.456Z,45.43
2018-12-12T20:29:44.127Z,57.30
2018-12-12T20:32:12.727Z,40.83
2018-12-12T20:34:41.132Z,40.63
2018-12-12T20:37:09.822Z,40.65
2018-12-12T20:39:38.208Z,63.15
2018-12-12T20:42:06.633Z,48.28
2018-12-12T20:44:35.285Z,47.25
2018-12-12T20:47:04.270Z,48.85
2018-12-12T20:49:32.687Z,47.80
2018-12-12T20:52:01.070Z,53.85
2018-12-12T20:54:29.548Z,47.35
2018-12-12T20:56:58.132Z,48.52
2018-12-12T20:59:26.508Z,50.90
2018-12-12T21:01:54.970Z,61.63
2018-12-12T21:04:23.517Z,54.75
2018-12-12T21:06:51.901Z,52.15
2018-12-12T21:09:20.267Z,56.50
2018-12-12T21:11:48.976Z,50.48
2018-12-12T21:14:17.347Z,45.75
2018-12-12T21:16:45.869Z,54.03
2018-12-12T21:19:14.267Z,46.35
2018-12-12T21:21:42.857Z,55.85
2018-12-12T21:24:11.288Z,56.98
2018-12-12T21:26:39.674Z,55.55
2018-12-12T21:29:08.086Z,63.25
2018-12-12T21:31:36.643Z,61.23
2018-12-12T21:34:05.036Z,47.45
2018-12-12T21:36:33.405Z,76.70
2018-12-12T21:39:01.777Z,48.73
2018-12-12T21:41:30.175Z,48.23
2018-12-12T21:43:58.854Z,46.05
2018-12-12T21:46:27.237Z,50.23
2018-12-12T21:48:55.672Z,46.08
2018-12-12T21:51:24.117Z,53.08
2018-12-12T21:53:52.633Z,55.23
2018-12-12T21:56:21.227Z,58.25
2018-12-12T21:58:49.667Z,46.92
2018-12-12T22:01:18.413Z,52.62
2018-12-12T22:03:46.902Z,39.15
2018-12-12T22:06:15.281Z,59.75
2018-12-12T22:08:43.885Z,50.73
2018-12-12T22:11:12.609Z,40.50
2018-12-12T22:13:41.557Z,43.30
2018-12-12T22:16:09.943Z,41.90
2018-12-12T22:18:38.325Z,38.63
2018-12-12T22:21:06.676Z,43.80
2018-12-12T22:23:35.038Z,45.67
2018-12-12T22:26:03.471Z,46.58
2018-12-12T22:28:32.123Z,44.98
2018-12-12T22:31:00.810Z,35.03
2018-12-12T22:33:29.226Z,45.20
2018-12-12T22:35:57.634Z,34.30
2018-12-12T22:38:26.026Z,40.03
2018-12-12T22:40:54.673Z,36.85
2018-12-12T22:43:23.068Z,41.18
2018-12-12T22:45:52.037Z,41.35
2018-12-12T22:48:20.817Z,41.90
2018-12-12T22:50:49.653Z,35.08
2018-12-12T22:53:18.013Z,36.08
2018-12-12T22:55:46.418Z,34.10
2018-12-12T22:58:14.796Z,32.08
2018-12-12T23:00:48.069Z,38.02
2018-12-12T23:03:16.443Z,35.17
2018-12-12T23:05:44.790Z,37.60
2018-12-12T23:08:13.221Z,51.08
2018-12-12T23:10:41.594Z,27.15
2018-12-12T23:13:09.964Z,35.08
2018-12-12T23:15:39.347Z,32.33
2018-12-12T23:18:10.104Z,31.75
2018-12-12T23:20:38.466Z,32.90
2018-12-12T23:23:06.865Z,34.20
2018-12-12T23:25:35.230Z,36.55
2018-12-12T23:28:03.682Z,31.10
2018-12-12T23:30:32.067Z,30.32
2018-12-12T23:33:00.438Z,30.65
2018-12-12T23:35:28.805Z,28.95
2018-12-12T23:37:57.169Z,25.68
2018-12-12T23:40:25.837Z,31.07
2018-12-12T23:42:54.195Z,30.08
2018-12-12T23:45:22.643Z,41.53
2018-12-12T23:47:51.291Z,28.20
2018-12-12T23:50:19.663Z,38.70
2018-12-12T23:52:48.053Z,29.10
2018-12-12T23:55:16.426Z,27.10
2018-12-12T23:57:44.838Z,32.38
